Aviation Digital Data Service (ADDS)

Output produced by METARs form (0532 UTC 21 January 2019)
found at http://www.aviationweather.gov/metar/data/
 
METAR text: VOTV 210530Z 33005KT 5000 HZ FEW015 BKN090 30/22 Q1014 NOSIG
Conditions at: VOTV (THIRUVANANTHAPUR, IN) observed 0530 UTC 21 January 2019
Temperature: 30.0°C (86°F)
Dewpoint: 22.0°C (72°F) [RH = 62%]
Pressure (altimeter): 29.94 inches Hg (1014.0 mb)
Winds: from the NNW (330 degrees) at 6 MPH (5 knots; 2.6 m/s)
Visibility: 3 miles ( 5 km)
Ceiling: 9000 feet AGL
Clouds: few clouds at 1500 feet AGL
broken clouds at 9000 feet AGL
Weather: HZ  (haze)

METAR text: VOTV 210500Z 32005KT 5000 HZ FEW015 BKN090 31/22 Q1014 NOSIG
Conditions at: VOTV (THIRUVANANTHAPUR, IN) observed 0500 UTC 21 January 2019
Temperature: 31.0°C (88°F)
Dewpoint: 22.0°C (72°F) [RH = 59%]
Pressure (altimeter): 29.94 inches Hg (1014.0 mb)
Winds: from the NW (320 degrees) at 6 MPH (5 knots; 2.6 m/s)
Visibility: 3 miles ( 5 km)
Ceiling: 9000 feet AGL
Clouds: few clouds at 1500 feet AGL
broken clouds at 9000 feet AGL
Weather: HZ  (haze)

METAR text: VOTV 210430Z 03003KT 5000 HZ FEW015 BKN090 30/21 Q1014 NOSIG
Conditions at: VOTV (THIRUVANANTHAPUR, IN) observed 0430 UTC 21 January 2019
Temperature: 30.0°C (86°F)
Dewpoint: 21.0°C (70°F) [RH = 59%]
Pressure (altimeter): 29.94 inches Hg (1014.0 mb)
Winds: from the NNE (30 degrees) at 3 MPH (3 knots; 1.5 m/s)
Visibility: 3 miles ( 5 km)
Ceiling: 9000 feet AGL
Clouds: few clouds at 1500 feet AGL
broken clouds at 9000 feet AGL
Weather: HZ  (haze)

METAR text: VOTV 210400Z 11005KT 4000 HZ FEW015 BKN090 29/20 Q1015 BECMG 5000 HZ
Conditions at: VOTV (THIRUVANANTHAPUR, IN) observed 0400 UTC 21 January 2019
Temperature: 29.0°C (84°F)
Dewpoint: 20.0°C (68°F) [RH = 58%]
Pressure (altimeter): 29.97 inches Hg (1015.0 mb)
Winds: from the ESE (110 degrees) at 6 MPH (5 knots; 2.6 m/s)
Visibility: 2.49 miles (4.01 km)
Ceiling: 9000 feet AGL
Clouds: few clouds at 1500 feet AGL
broken clouds at 9000 feet AGL
Weather: HZ  (haze)

METAR text: VOTV 210330Z 11005KT 4000 HZ FEW015 BKN090 28/19 Q1015 NOSIG
Conditions at: VOTV (THIRUVANANTHAPUR, IN) observed 0330 UTC 21 January 2019
Temperature: 28.0°C (82°F)
Dewpoint: 19.0°C (66°F) [RH = 58%]
Pressure (altimeter): 29.97 inches Hg (1015.0 mb)
Winds: from the ESE (110 degrees) at 6 MPH (5 knots; 2.6 m/s)
Visibility: 2.49 miles (4.01 km)
Ceiling: 9000 feet AGL
Clouds: few clouds at 1500 feet AGL
broken clouds at 9000 feet AGL
Weather: HZ  (haze)

METAR text: VOTV 210300Z 11005KT 4000 HZ SCT015 OVC090 26/18 Q1014 NOSIG
Conditions at: VOTV (THIRUVANANTHAPUR, IN) observed 0300 UTC 21 January 2019
Temperature: 26.0°C (79°F)
Dewpoint: 18.0°C (64°F) [RH = 61%]
Pressure (altimeter): 29.94 inches Hg (1014.0 mb)
Winds: from the ESE (110 degrees) at 6 MPH (5 knots; 2.6 m/s)
Visibility: 2.49 miles (4.01 km)
Ceiling: 9000 feet AGL
Clouds: scattered clouds at 1500 feet AGL
overcast cloud deck at 9000 feet AGL
Weather: HZ  (haze)

METAR text: VOTV 210200Z 10004KT 4000 HZ FEW015 OVC090 25/19 Q1013 NOSIG
Conditions at: VOTV (THIRUVANANTHAPUR, IN) observed 0200 UTC 21 January 2019
Temperature: 25.0°C (77°F)
Dewpoint: 19.0°C (66°F) [RH = 69%]
Pressure (altimeter): 29.91 inches Hg (1013.0 mb)
Winds: from the E (100 degrees) at 5 MPH (4 knots; 2.1 m/s)
Visibility: 2.49 miles (4.01 km)
Ceiling: 9000 feet AGL
Clouds: few clouds at 1500 feet AGL
overcast cloud deck at 9000 feet AGL
Weather: HZ  (haze)

METAR text: VOTV 210130Z 10004KT 3000 HZ FEW015 OVC090 24/18 Q1013 BECMG 4000 HZ
Conditions at: VOTV (THIRUVANANTHAPUR, IN) observed 0130 UTC 21 January 2019
Temperature: 24.0°C (75°F)
Dewpoint: 18.0°C (64°F) [RH = 69%]
Pressure (altimeter): 29.91 inches Hg (1013.0 mb)
Winds: from the E (100 degrees) at 5 MPH (4 knots; 2.1 m/s)
Visibility: 1.86 miles (2.99 km)
Ceiling: 9000 feet AGL
Clouds: few clouds at 1500 feet AGL
overcast cloud deck at 9000 feet AGL
Weather: HZ  (haze)

METAR text: VOTV 210100Z 12004KT 3000 HZ FEW015 BKN090 24/18 Q1012 NOSIG
Conditions at: VOTV (THIRUVANANTHAPUR, IN) observed 0100 UTC 21 January 2019
Temperature: 24.0°C (75°F)
Dewpoint: 18.0°C (64°F) [RH = 69%]
Pressure (altimeter): 29.88 inches Hg (1012.0 mb)
Winds: from the ESE (120 degrees) at 5 MPH (4 knots; 2.1 m/s)
Visibility: 1.86 miles (2.99 km)
Ceiling: 9000 feet AGL
Clouds: few clouds at 1500 feet AGL
broken clouds at 9000 feet AGL
Weather: HZ  (haze)

METAR text: VOTV 210030Z 12004KT 3000 HZ FEW015 BKN090 24/19 Q1012 NOSIG
Conditions at: VOTV (THIRUVANANTHAPUR, IN) observed 0030 UTC 21 January 2019
Temperature: 24.0°C (75°F)
Dewpoint: 19.0°C (66°F) [RH = 74%]
Pressure (altimeter): 29.88 inches Hg (1012.0 mb)
Winds: from the ESE (120 degrees) at 5 MPH (4 knots; 2.1 m/s)
Visibility: 1.86 miles (2.99 km)
Ceiling: 9000 feet AGL
Clouds: few clouds at 1500 feet AGL
broken clouds at 9000 feet AGL
Weather: HZ  (haze)

METAR text: VOTV 210000Z 12004KT 3000 HZ FEW015 BKN090 24/19 Q1012 NOSIG
Conditions at: VOTV (THIRUVANANTHAPUR, IN) observed 0000 UTC 21 January 2019
Temperature: 24.0°C (75°F)
Dewpoint: 19.0°C (66°F) [RH = 74%]
Pressure (altimeter): 29.88 inches Hg (1012.0 mb)
Winds: from the ESE (120 degrees) at 5 MPH (4 knots; 2.1 m/s)
Visibility: 1.86 miles (2.99 km)
Ceiling: 9000 feet AGL
Clouds: few clouds at 1500 feet AGL
broken clouds at 9000 feet AGL
Weather: HZ  (haze)

METAR text: VOTV 202330Z 13004KT 3000 BR FEW015 BKN090 25/21 Q1011 NOSIG
Conditions at: VOTV (THIRUVANANTHAPUR, IN) observed 2330 UTC 20 January 2019
Temperature: 25.0°C (77°F)
Dewpoint: 21.0°C (70°F) [RH = 79%]
Pressure (altimeter): 29.85 inches Hg (1011.0 mb)
Winds: from the SE (130 degrees) at 5 MPH (4 knots; 2.1 m/s)
Visibility: 1.86 miles (2.99 km)
Ceiling: 9000 feet AGL
Clouds: few clouds at 1500 feet AGL
broken clouds at 9000 feet AGL
Weather: BR  (mist)

METAR text: VOTV 202300Z 13004KT 3000 BR FEW015 BKN090 24/21 Q1011 NOSIG
Conditions at: VOTV (THIRUVANANTHAPUR, IN) observed 2300 UTC 20 January 2019
Temperature: 24.0°C (75°F)
Dewpoint: 21.0°C (70°F) [RH = 83%]
Pressure (altimeter): 29.85 inches Hg (1011.0 mb)
Winds: from the SE (130 degrees) at 5 MPH (4 knots; 2.1 m/s)
Visibility: 1.86 miles (2.99 km)
Ceiling: 9000 feet AGL
Clouds: few clouds at 1500 feet AGL
broken clouds at 9000 feet AGL
Weather: BR  (mist)

METAR text: VOTV 202230Z 11004KT 3000 BR FEW015 BKN090 24/21 Q1011 NOSIG
Conditions at: VOTV (THIRUVANANTHAPUR, IN) observed 2230 UTC 20 January 2019
Temperature: 24.0°C (75°F)
Dewpoint: 21.0°C (70°F) [RH = 83%]
Pressure (altimeter): 29.85 inches Hg (1011.0 mb)
Winds: from the ESE (110 degrees) at 5 MPH (4 knots; 2.1 m/s)
Visibility: 1.86 miles (2.99 km)
Ceiling: 9000 feet AGL
Clouds: few clouds at 1500 feet AGL
broken clouds at 9000 feet AGL
Weather: BR  (mist)

METAR text: VOTV 202200Z 16003KT 3000 BR FEW015 BKN090 24/22 Q1011 NOSIG
Conditions at: VOTV (THIRUVANANTHAPUR, IN) observed 2200 UTC 20 January 2019
Temperature: 24.0°C (75°F)
Dewpoint: 22.0°C (72°F) [RH = 89%]
Pressure (altimeter): 29.85 inches Hg (1011.0 mb)
Winds: from the SSE (160 degrees) at 3 MPH (3 knots; 1.5 m/s)
Visibility: 1.86 miles (2.99 km)
Ceiling: 9000 feet AGL
Clouds: few clouds at 1500 feet AGL
broken clouds at 9000 feet AGL
Weather: BR  (mist)

METAR text: VOTV 202130Z 17003KT 3000 BR FEW015 BKN090 24/22 Q1011 NOSIG
Conditions at: VOTV (THIRUVANANTHAPUR, IN) observed 2130 UTC 20 January 2019
Temperature: 24.0°C (75°F)
Dewpoint: 22.0°C (72°F) [RH = 89%]
Pressure (altimeter): 29.85 inches Hg (1011.0 mb)
Winds: from the S (170 degrees) at 3 MPH (3 knots; 1.5 m/s)
Visibility: 1.86 miles (2.99 km)
Ceiling: 9000 feet AGL
Clouds: few clouds at 1500 feet AGL
broken clouds at 9000 feet AGL
Weather: BR  (mist)

METAR text: VOTV 202100Z 14003KT 3000 BR FEW015 BKN090 24/21 Q1011 NOSIG
Conditions at: VOTV (THIRUVANANTHAPUR, IN) observed 2100 UTC 20 January 2019
Temperature: 24.0°C (75°F)
Dewpoint: 21.0°C (70°F) [RH = 83%]
Pressure (altimeter): 29.85 inches Hg (1011.0 mb)
Winds: from the SE (140 degrees) at 3 MPH (3 knots; 1.5 m/s)
Visibility: 1.86 miles (2.99 km)
Ceiling: 9000 feet AGL
Clouds: few clouds at 1500 feet AGL
broken clouds at 9000 feet AGL
Weather: BR  (mist)

METAR text: VOTV 202030Z 17004KT 3000 HZ FEW015 SCT090 24/22 Q1012 TEMPO 2500 HZ
Conditions at: VOTV (THIRUVANANTHAPUR, IN) observed 2030 UTC 20 January 2019
Temperature: 24.0°C (75°F)
Dewpoint: 22.0°C (72°F) [RH = 89%]
Pressure (altimeter): 29.88 inches Hg (1012.0 mb)
Winds: from the S (170 degrees) at 5 MPH (4 knots; 2.1 m/s)
Visibility: 1.86 miles (2.99 km)
Ceiling: at least 12,000 feet AGL
Clouds: few clouds at 1500 feet AGL
scattered clouds at 9000 feet AGL
Weather: HZ  (haze)

METAR text: VOTV 202000Z 16004KT 3000 HZ FEW015 BKN090 24/22 Q1012 TEMPO 2500 HZ
Conditions at: VOTV (THIRUVANANTHAPUR, IN) observed 2000 UTC 20 January 2019
Temperature: 24.0°C (75°F)
Dewpoint: 22.0°C (72°F) [RH = 89%]
Pressure (altimeter): 29.88 inches Hg (1012.0 mb)
Winds: from the SSE (160 degrees) at 5 MPH (4 knots; 2.1 m/s)
Visibility: 1.86 miles (2.99 km)
Ceiling: 9000 feet AGL
Clouds: few clouds at 1500 feet AGL
broken clouds at 9000 feet AGL
Weather: HZ  (haze)

METAR text: VOTV 201930Z 16004KT 3000 HZ FEW015 BKN090 25/22 Q1012 NOSIG
Conditions at: VOTV (THIRUVANANTHAPUR, IN) observed 1930 UTC 20 January 2019
Temperature: 25.0°C (77°F)
Dewpoint: 22.0°C (72°F) [RH = 83%]
Pressure (altimeter): 29.88 inches Hg (1012.0 mb)
Winds: from the SSE (160 degrees) at 5 MPH (4 knots; 2.1 m/s)
Visibility: 1.86 miles (2.99 km)
Ceiling: 9000 feet AGL
Clouds: few clouds at 1500 feet AGL
broken clouds at 9000 feet AGL
Weather: HZ  (haze)

METAR text: VOTV 201900Z 17004KT 3000 HZ FEW015 BKN090 25/22 Q1012 NOSIG
Conditions at: VOTV (THIRUVANANTHAPUR, IN) observed 1900 UTC 20 January 2019
Temperature: 25.0°C (77°F)
Dewpoint: 22.0°C (72°F) [RH = 83%]
Pressure (altimeter): 29.88 inches Hg (1012.0 mb)
Winds: from the S (170 degrees) at 5 MPH (4 knots; 2.1 m/s)
Visibility: 1.86 miles (2.99 km)
Ceiling: 9000 feet AGL
Clouds: few clouds at 1500 feet AGL
broken clouds at 9000 feet AGL
Weather: HZ  (haze)

METAR text: VOTV 201830Z 17002KT 3000 HZ FEW015 BKN090 25/22 Q1012 NOSIG
Conditions at: VOTV (THIRUVANANTHAPUR, IN) observed 1830 UTC 20 January 2019
Temperature: 25.0°C (77°F)
Dewpoint: 22.0°C (72°F) [RH = 83%]
Pressure (altimeter): 29.88 inches Hg (1012.0 mb)
Winds: from the S (170 degrees) at 2 MPH (2 knots; 1.0 m/s)
Visibility: 1.86 miles (2.99 km)
Ceiling: 9000 feet AGL
Clouds: few clouds at 1500 feet AGL
broken clouds at 9000 feet AGL
Weather: HZ  (haze)

METAR text: VOTV 201800Z 00000KT 3000 HZ FEW015 BKN090 25/22 Q1012 NOSIG
Conditions at: VOTV (THIRUVANANTHAPUR, IN) observed 1800 UTC 20 January 2019
Temperature: 25.0°C (77°F)
Dewpoint: 22.0°C (72°F) [RH = 83%]
Pressure (altimeter): 29.88 inches Hg (1012.0 mb)
Winds: calm
Visibility: 1.86 miles (2.99 km)
Ceiling: 9000 feet AGL
Clouds: few clouds at 1500 feet AGL
broken clouds at 9000 feet AGL
Weather: HZ  (haze)

METAR text: VOTV 201730Z 00000KT 3000 HZ FEW015 BKN090 26/22 Q1013 NOSIG
Conditions at: VOTV (THIRUVANANTHAPUR, IN) observed 1730 UTC 20 January 2019
Temperature: 26.0°C (79°F)
Dewpoint: 22.0°C (72°F) [RH = 79%]
Pressure (altimeter): 29.91 inches Hg (1013.0 mb)
Winds: calm
Visibility: 1.86 miles (2.99 km)
Ceiling: 9000 feet AGL
Clouds: few clouds at 1500 feet AGL
broken clouds at 9000 feet AGL
Weather: HZ  (haze)

METAR text: VOTV 201700Z 02003KT 3000 HZ FEW015 BKN090 26/22 Q1013 NOSIG
Conditions at: VOTV (THIRUVANANTHAPUR, IN) observed 1700 UTC 20 January 2019
Temperature: 26.0°C (79°F)
Dewpoint: 22.0°C (72°F) [RH = 79%]
Pressure (altimeter): 29.91 inches Hg (1013.0 mb)
Winds: from the NNE (20 degrees) at 3 MPH (3 knots; 1.5 m/s)
Visibility: 1.86 miles (2.99 km)
Ceiling: 9000 feet AGL
Clouds: few clouds at 1500 feet AGL
broken clouds at 9000 feet AGL
Weather: HZ  (haze)

METAR text: VOTV 201630Z 36003KT 3000 HZ FEW015 BKN090 26/22 Q1012 NOSIG
Conditions at: VOTV (THIRUVANANTHAPUR, IN) observed 1630 UTC 20 January 2019
Temperature: 26.0°C (79°F)
Dewpoint: 22.0°C (72°F) [RH = 79%]
Pressure (altimeter): 29.88 inches Hg (1012.0 mb)
Winds: from the N (360 degrees) at 3 MPH (3 knots; 1.5 m/s)
Visibility: 1.86 miles (2.99 km)
Ceiling: 9000 feet AGL
Clouds: few clouds at 1500 feet AGL
broken clouds at 9000 feet AGL
Weather: HZ  (haze)

METAR text: VOTV 201600Z 00000KT 4000 HZ FEW015 BKN090 26/22 Q1012 TEMPO 3000 HZ
Conditions at: VOTV (THIRUVANANTHAPUR, IN) observed 1600 UTC 20 January 2019
Temperature: 26.0°C (79°F)
Dewpoint: 22.0°C (72°F) [RH = 79%]
Pressure (altimeter): 29.88 inches Hg (1012.0 mb)
Winds: calm
Visibility: 2.49 miles (4.01 km)
Ceiling: 9000 feet AGL
Clouds: few clouds at 1500 feet AGL
broken clouds at 9000 feet AGL
Weather: HZ  (haze)

METAR text: VOTV 201530Z 33003KT 4000 HZ FEW015 BKN090 27/22 Q1012 NOSIG
Conditions at: VOTV (THIRUVANANTHAPUR, IN) observed 1530 UTC 20 January 2019
Temperature: 27.0°C (81°F)
Dewpoint: 22.0°C (72°F) [RH = 74%]
Pressure (altimeter): 29.88 inches Hg (1012.0 mb)
Winds: from the NNW (330 degrees) at 3 MPH (3 knots; 1.5 m/s)
Visibility: 2.49 miles (4.01 km)
Ceiling: 9000 feet AGL
Clouds: few clouds at 1500 feet AGL
broken clouds at 9000 feet AGL
Weather: HZ  (haze)

METAR text: VOTV 201500Z 35003KT 4000 HZ FEW015 BKN090 27/22 Q1012 NOSIG
Conditions at: VOTV (THIRUVANANTHAPUR, IN) observed 1500 UTC 20 January 2019
Temperature: 27.0°C (81°F)
Dewpoint: 22.0°C (72°F) [RH = 74%]
Pressure (altimeter): 29.88 inches Hg (1012.0 mb)
Winds: from the N (350 degrees) at 3 MPH (3 knots; 1.5 m/s)
Visibility: 2.49 miles (4.01 km)
Ceiling: 9000 feet AGL
Clouds: few clouds at 1500 feet AGL
broken clouds at 9000 feet AGL
Weather: HZ  (haze)

METAR text: VOTV 201430Z 31002KT 4000 HZ FEW015 BKN090 28/22 Q1011 NOSIG
Conditions at: VOTV (THIRUVANANTHAPUR, IN) observed 1430 UTC 20 January 2019
Temperature: 28.0°C (82°F)
Dewpoint: 22.0°C (72°F) [RH = 70%]
Pressure (altimeter): 29.85 inches Hg (1011.0 mb)
Winds: from the NW (310 degrees) at 2 MPH (2 knots; 1.0 m/s)
Visibility: 2.49 miles (4.01 km)
Ceiling: 9000 feet AGL
Clouds: few clouds at 1500 feet AGL
broken clouds at 9000 feet AGL
Weather: HZ  (haze)

METAR text: VOTV 201400Z 31002KT 4000 HZ FEW015 BKN090 28/22 Q1011 NOSIG
Conditions at: VOTV (THIRUVANANTHAPUR, IN) observed 1400 UTC 20 January 2019
Temperature: 28.0°C (82°F)
Dewpoint: 22.0°C (72°F) [RH = 70%]
Pressure (altimeter): 29.85 inches Hg (1011.0 mb)
Winds: from the NW (310 degrees) at 2 MPH (2 knots; 1.0 m/s)
Visibility: 2.49 miles (4.01 km)
Ceiling: 9000 feet AGL
Clouds: few clouds at 1500 feet AGL
broken clouds at 9000 feet AGL
Weather: HZ  (haze)

METAR text: VOTV 201330Z 27002KT 4000 HZ FEW015 BKN090 28/22 Q1011 NOSIG
Conditions at: VOTV (THIRUVANANTHAPUR, IN) observed 1330 UTC 20 January 2019
Temperature: 28.0°C (82°F)
Dewpoint: 22.0°C (72°F) [RH = 70%]
Pressure (altimeter): 29.85 inches Hg (1011.0 mb)
Winds: from the W (270 degrees) at 2 MPH (2 knots; 1.0 m/s)
Visibility: 2.49 miles (4.01 km)
Ceiling: 9000 feet AGL
Clouds: few clouds at 1500 feet AGL
broken clouds at 9000 feet AGL
Weather: HZ  (haze)

METAR text: VOTV 201300Z 29003KT 5000 HZ FEW015 BKN090 28/22 Q1010 NOSIG
Conditions at: VOTV (THIRUVANANTHAPUR, IN) observed 1300 UTC 20 January 2019
Temperature: 28.0°C (82°F)
Dewpoint: 22.0°C (72°F) [RH = 70%]
Pressure (altimeter): 29.82 inches Hg (1010.0 mb)
Winds: from the WNW (290 degrees) at 3 MPH (3 knots; 1.5 m/s)
Visibility: 3 miles ( 5 km)
Ceiling: 9000 feet AGL
Clouds: few clouds at 1500 feet AGL
broken clouds at 9000 feet AGL
Weather: HZ  (haze)

METAR text: VOTV 201230Z 24002KT 5000 HZ FEW015 BKN090 28/23 Q1010 TEMPO 4000 HZ
Conditions at: VOTV (THIRUVANANTHAPUR, IN) observed 1230 UTC 20 January 2019
Temperature: 28.0°C (82°F)
Dewpoint: 23.0°C (73°F) [RH = 74%]
Pressure (altimeter): 29.82 inches Hg (1010.0 mb)
Winds: from the WSW (240 degrees) at 2 MPH (2 knots; 1.0 m/s)
Visibility: 3 miles ( 5 km)
Ceiling: 9000 feet AGL
Clouds: few clouds at 1500 feet AGL
broken clouds at 9000 feet AGL
Weather: HZ  (haze)

METAR text: VOTV 201200Z 21004KT 5000 HZ FEW015 BKN090 29/23 Q1010 NOSIG
Conditions at: VOTV (THIRUVANANTHAPUR, IN) observed 1200 UTC 20 January 2019
Temperature: 29.0°C (84°F)
Dewpoint: 23.0°C (73°F) [RH = 70%]
Pressure (altimeter): 29.82 inches Hg (1010.0 mb)
Winds: from the SSW (210 degrees) at 5 MPH (4 knots; 2.1 m/s)
Visibility: 3 miles ( 5 km)
Ceiling: 9000 feet AGL
Clouds: few clouds at 1500 feet AGL
broken clouds at 9000 feet AGL
Weather: HZ  (haze)

METAR text: VOTV 201130Z 21004KT 5000 HZ FEW015 BKN090 29/23 Q1010 NOSIG
Conditions at: VOTV (THIRUVANANTHAPUR, IN) observed 1130 UTC 20 January 2019
Temperature: 29.0°C (84°F)
Dewpoint: 23.0°C (73°F) [RH = 70%]
Pressure (altimeter): 29.82 inches Hg (1010.0 mb)
Winds: from the SSW (210 degrees) at 5 MPH (4 knots; 2.1 m/s)
Visibility: 3 miles ( 5 km)
Ceiling: 9000 feet AGL
Clouds: few clouds at 1500 feet AGL
broken clouds at 9000 feet AGL
Weather: HZ  (haze)

METAR text: VOTV 201100Z 22005KT 5000 HZ FEW015 BKN090 29/23 Q1010 NOSIG
Conditions at: VOTV (THIRUVANANTHAPUR, IN) observed 1100 UTC 20 January 2019
Temperature: 29.0°C (84°F)
Dewpoint: 23.0°C (73°F) [RH = 70%]
Pressure (altimeter): 29.82 inches Hg (1010.0 mb)
Winds: from the SW (220 degrees) at 6 MPH (5 knots; 2.6 m/s)
Visibility: 3 miles ( 5 km)
Ceiling: 9000 feet AGL
Clouds: few clouds at 1500 feet AGL
broken clouds at 9000 feet AGL
Weather: HZ  (haze)

METAR text: VOTV 201030Z 24005KT 5000 HZ FEW015 BKN090 29/23 Q1010 NOSIG
Conditions at: VOTV (THIRUVANANTHAPUR, IN) observed 1030 UTC 20 January 2019
Temperature: 29.0°C (84°F)
Dewpoint: 23.0°C (73°F) [RH = 70%]
Pressure (altimeter): 29.82 inches Hg (1010.0 mb)
Winds: from the WSW (240 degrees) at 6 MPH (5 knots; 2.6 m/s)
Visibility: 3 miles ( 5 km)
Ceiling: 9000 feet AGL
Clouds: few clouds at 1500 feet AGL
broken clouds at 9000 feet AGL
Weather: HZ  (haze)

METAR text: VOTV 201000Z 26005KT 5000 HZ FEW015 BKN090 30/23 Q1010 NOSIG
Conditions at: VOTV (THIRUVANANTHAPUR, IN) observed 1000 UTC 20 January 2019
Temperature: 30.0°C (86°F)
Dewpoint: 23.0°C (73°F) [RH = 66%]
Pressure (altimeter): 29.82 inches Hg (1010.0 mb)
Winds: from the W (260 degrees) at 6 MPH (5 knots; 2.6 m/s)
Visibility: 3 miles ( 5 km)
Ceiling: 9000 feet AGL
Clouds: few clouds at 1500 feet AGL
broken clouds at 9000 feet AGL
Weather: HZ  (haze)

METAR text: VOTV 200930Z 28006KT 5000 HZ FEW015 OVC090 30/23 Q1011 NOSIG
Conditions at: VOTV (THIRUVANANTHAPUR, IN) observed 0930 UTC 20 January 2019
Temperature: 30.0°C (86°F)
Dewpoint: 23.0°C (73°F) [RH = 66%]
Pressure (altimeter): 29.85 inches Hg (1011.0 mb)
Winds: from the W (280 degrees) at 7 MPH (6 knots; 3.1 m/s)
Visibility: 3 miles ( 5 km)
Ceiling: 9000 feet AGL
Clouds: few clouds at 1500 feet AGL
overcast cloud deck at 9000 feet AGL
Weather: HZ  (haze)

METAR text: VOTV 200900Z 27004KT 5000 HZ FEW015 OVC090 30/23 Q1011 NOSIG
Conditions at: VOTV (THIRUVANANTHAPUR, IN) observed 0900 UTC 20 January 2019
Temperature: 30.0°C (86°F)
Dewpoint: 23.0°C (73°F) [RH = 66%]
Pressure (altimeter): 29.85 inches Hg (1011.0 mb)
Winds: from the W (270 degrees) at 5 MPH (4 knots; 2.1 m/s)
Visibility: 3 miles ( 5 km)
Ceiling: 9000 feet AGL
Clouds: few clouds at 1500 feet AGL
overcast cloud deck at 9000 feet AGL
Weather: HZ  (haze)

METAR text: VOTV 200830Z 30005KT 5000 HZ FEW015 OVC090 30/22 Q1011 NOSIG
Conditions at: VOTV (THIRUVANANTHAPUR, IN) observed 0830 UTC 20 January 2019
Temperature: 30.0°C (86°F)
Dewpoint: 22.0°C (72°F) [RH = 62%]
Pressure (altimeter): 29.85 inches Hg (1011.0 mb)
Winds: from the WNW (300 degrees) at 6 MPH (5 knots; 2.6 m/s)
Visibility: 3 miles ( 5 km)
Ceiling: 9000 feet AGL
Clouds: few clouds at 1500 feet AGL
overcast cloud deck at 9000 feet AGL
Weather: HZ  (haze)

METAR text: VOTV 200800Z 30005KT 5000 HZ FEW015 OVC090 30/22 Q1012 NOSIG
Conditions at: VOTV (THIRUVANANTHAPUR, IN) observed 0800 UTC 20 January 2019
Temperature: 30.0°C (86°F)
Dewpoint: 22.0°C (72°F) [RH = 62%]
Pressure (altimeter): 29.88 inches Hg (1012.0 mb)
Winds: from the WNW (300 degrees) at 6 MPH (5 knots; 2.6 m/s)
Visibility: 3 miles ( 5 km)
Ceiling: 9000 feet AGL
Clouds: few clouds at 1500 feet AGL
overcast cloud deck at 9000 feet AGL
Weather: HZ  (haze)

METAR text: VOTV 200730Z 31005KT 5000 HZ FEW015 OVC090 30/21 Q1012 NOSIG
Conditions at: VOTV (THIRUVANANTHAPUR, IN) observed 0730 UTC 20 January 2019
Temperature: 30.0°C (86°F)
Dewpoint: 21.0°C (70°F) [RH = 59%]
Pressure (altimeter): 29.88 inches Hg (1012.0 mb)
Winds: from the NW (310 degrees) at 6 MPH (5 knots; 2.6 m/s)
Visibility: 3 miles ( 5 km)
Ceiling: 9000 feet AGL
Clouds: few clouds at 1500 feet AGL
overcast cloud deck at 9000 feet AGL
Weather: HZ  (haze)

METAR text: VOTV 200700Z 30003KT 5000 HZ FEW015 OVC090 29/21 Q1013 NOSIG
Conditions at: VOTV (THIRUVANANTHAPUR, IN) observed 0700 UTC 20 January 2019
Temperature: 29.0°C (84°F)
Dewpoint: 21.0°C (70°F) [RH = 62%]
Pressure (altimeter): 29.91 inches Hg (1013.0 mb)
Winds: from the WNW (300 degrees) at 3 MPH (3 knots; 1.5 m/s)
Visibility: 3 miles ( 5 km)
Ceiling: 9000 feet AGL
Clouds: few clouds at 1500 feet AGL
overcast cloud deck at 9000 feet AGL
Weather: HZ  (haze)

METAR text: VOTV 200630Z 09004KT 5000 HZ FEW015 OVC090 29/21 Q1013 NOSIG
Conditions at: VOTV (THIRUVANANTHAPUR, IN) observed 0630 UTC 20 January 2019
Temperature: 29.0°C (84°F)
Dewpoint: 21.0°C (70°F) [RH = 62%]
Pressure (altimeter): 29.91 inches Hg (1013.0 mb)
Winds: from the E (90 degrees) at 5 MPH (4 knots; 2.1 m/s)
Visibility: 3 miles ( 5 km)
Ceiling: 9000 feet AGL
Clouds: few clouds at 1500 feet AGL
overcast cloud deck at 9000 feet AGL
Weather: HZ  (haze)

METAR text: VOTV 200600Z 14004KT 4000 HZ FEW015 OVC090 29/21 Q1014 BECMG 5000 HZ
Conditions at: VOTV (THIRUVANANTHAPUR, IN) observed 0600 UTC 20 January 2019
Temperature: 29.0°C (84°F)
Dewpoint: 21.0°C (70°F) [RH = 62%]
Pressure (altimeter): 29.94 inches Hg (1014.0 mb)
Winds: from the SE (140 degrees) at 5 MPH (4 knots; 2.1 m/s)
Visibility: 2.49 miles (4.01 km)
Ceiling: 9000 feet AGL
Clouds: few clouds at 1500 feet AGL
overcast cloud deck at 9000 feet AGL
Weather: HZ  (haze)

METAR text: VOTV 200530Z 15004KT 4000 HZ FEW015 OVC080 28/20 Q1014 NOSIG
Conditions at: VOTV (THIRUVANANTHAPUR, IN) observed 0530 UTC 20 January 2019
Temperature: 28.0°C (82°F)
Dewpoint: 20.0°C (68°F) [RH = 62%]
Pressure (altimeter): 29.94 inches Hg (1014.0 mb)
Winds: from the SSE (150 degrees) at 5 MPH (4 knots; 2.1 m/s)
Visibility: 2.49 miles (4.01 km)
Ceiling: 8000 feet AGL
Clouds: few clouds at 1500 feet AGL
overcast cloud deck at 8000 feet AGL
Weather: HZ  (haze)

METAR text: VOTV 200500Z 09004KT 4000 HZ FEW015 OVC080 28/20 Q1014 NOSIG
Conditions at: VOTV (THIRUVANANTHAPUR, IN) observed 0500 UTC 20 January 2019
Temperature: 28.0°C (82°F)
Dewpoint: 20.0°C (68°F) [RH = 62%]
Pressure (altimeter): 29.94 inches Hg (1014.0 mb)
Winds: from the E (90 degrees) at 5 MPH (4 knots; 2.1 m/s)
Visibility: 2.49 miles (4.01 km)
Ceiling: 8000 feet AGL
Clouds: few clouds at 1500 feet AGL
overcast cloud deck at 8000 feet AGL
Weather: HZ  (haze)

METAR text: VOTV 200400Z 09004KT 3000 HZ FEW015 OVC080 28/20 Q1015 BECMG 4000 HZ
Conditions at: VOTV (THIRUVANANTHAPUR, IN) observed 0400 UTC 20 January 2019
Temperature: 28.0°C (82°F)
Dewpoint: 20.0°C (68°F) [RH = 62%]
Pressure (altimeter): 29.97 inches Hg (1015.0 mb)
Winds: from the E (90 degrees) at 5 MPH (4 knots; 2.1 m/s)
Visibility: 1.86 miles (2.99 km)
Ceiling: 8000 feet AGL
Clouds: few clouds at 1500 feet AGL
overcast cloud deck at 8000 feet AGL
Weather: HZ  (haze)

METAR text: VOTV 200330Z 07004KT 3000 HZZ FEW015 OVC080 26/21 Q1014 NOSIG
Conditions at: VOTV (THIRUVANANTHAPUR, IN) observed 0330 UTC 20 January 2019
Temperature: 26.0°C (79°F)
Dewpoint: 21.0°C (70°F) [RH = 74%]
Pressure (altimeter): 29.94 inches Hg (1014.0 mb)
Winds: from the ENE (70 degrees) at 5 MPH (4 knots; 2.1 m/s)
Visibility: 1.86 miles (2.99 km)
Ceiling: 8000 feet AGL
Clouds: few clouds at 1500 feet AGL
overcast cloud deck at 8000 feet AGL
Weather: HZ  (haze)

METAR text: VOTV 200300Z 07004KT 3000 -DZ SCT015 OVC080 25/21 Q1014 NOSIG
Conditions at: VOTV (THIRUVANANTHAPUR, IN) observed 0300 UTC 20 January 2019
Temperature: 25.0°C (77°F)
Dewpoint: 21.0°C (70°F) [RH = 79%]
Pressure (altimeter): 29.94 inches Hg (1014.0 mb)
Winds: from the ENE (70 degrees) at 5 MPH (4 knots; 2.1 m/s)
Visibility: 1.86 miles (2.99 km)
Ceiling: 8000 feet AGL
Clouds: scattered clouds at 1500 feet AGL
overcast cloud deck at 8000 feet AGL
Weather: -DZ  (light drizzle)

METAR text: VOTV 200230Z 07003KT 3000 HZ FEW015 25/20 Q1013 BECMG 4000 HZ
Conditions at: VOTV (THIRUVANANTHAPUR, IN) observed 0230 UTC 20 January 2019
Temperature: 25.0°C (77°F)
Dewpoint: 20.0°C (68°F) [RH = 74%]
Pressure (altimeter): 29.91 inches Hg (1013.0 mb)
Winds: from the ENE (70 degrees) at 3 MPH (3 knots; 1.5 m/s)
Visibility: 1.86 miles (2.99 km)
Ceiling: at least 12,000 feet AGL
Clouds: few clouds at 1500 feet AGL
Weather: HZ  (haze)

METAR text: VOTV 200200Z 04003KT 3000 HZ FEW015 25/22 Q1013 NOSIG
Conditions at: VOTV (THIRUVANANTHAPUR, IN) observed 0200 UTC 20 January 2019
Temperature: 25.0°C (77°F)
Dewpoint: 22.0°C (72°F) [RH = 83%]
Pressure (altimeter): 29.91 inches Hg (1013.0 mb)
Winds: from the NE (40 degrees) at 3 MPH (3 knots; 1.5 m/s)
Visibility: 1.86 miles (2.99 km)
Ceiling: at least 12,000 feet AGL
Clouds: few clouds at 1500 feet AGL
Weather: HZ  (haze)

METAR text: VOTV 200130Z 00000KT 3000 HZ FEW015 25/23 Q1013 NOSIG
Conditions at: VOTV (THIRUVANANTHAPUR, IN) observed 0130 UTC 20 January 2019
Temperature: 25.0°C (77°F)
Dewpoint: 23.0°C (73°F) [RH = 89%]
Pressure (altimeter): 29.91 inches Hg (1013.0 mb)
Winds: calm
Visibility: 1.86 miles (2.99 km)
Ceiling: at least 12,000 feet AGL
Clouds: few clouds at 1500 feet AGL
Weather: HZ  (haze)

METAR text: VOTV 200100Z 09003KT 3000 HZ FEW015 25/23 Q1012 NOSIG
Conditions at: VOTV (THIRUVANANTHAPUR, IN) observed 0100 UTC 20 January 2019
Temperature: 25.0°C (77°F)
Dewpoint: 23.0°C (73°F) [RH = 89%]
Pressure (altimeter): 29.88 inches Hg (1012.0 mb)
Winds: from the E (90 degrees) at 3 MPH (3 knots; 1.5 m/s)
Visibility: 1.86 miles (2.99 km)
Ceiling: at least 12,000 feet AGL
Clouds: few clouds at 1500 feet AGL
Weather: HZ  (haze)

METAR text: VOTV 200030Z 00000KT 3000 HZ FEW015 25/23 Q1012 NOSIG
Conditions at: VOTV (THIRUVANANTHAPUR, IN) observed 0030 UTC 20 January 2019
Temperature: 25.0°C (77°F)
Dewpoint: 23.0°C (73°F) [RH = 89%]
Pressure (altimeter): 29.88 inches Hg (1012.0 mb)
Winds: calm
Visibility: 1.86 miles (2.99 km)
Ceiling: at least 12,000 feet AGL
Clouds: few clouds at 1500 feet AGL
Weather: HZ  (haze)

METAR text: VOTV 200000Z 00000KT 3000 HZ FEW015 25/23 Q1012 NOSIG
Conditions at: VOTV (THIRUVANANTHAPUR, IN) observed 0000 UTC 20 January 2019
Temperature: 25.0°C (77°F)
Dewpoint: 23.0°C (73°F) [RH = 89%]
Pressure (altimeter): 29.88 inches Hg (1012.0 mb)
Winds: calm
Visibility: 1.86 miles (2.99 km)
Ceiling: at least 12,000 feet AGL
Clouds: few clouds at 1500 feet AGL
Weather: HZ  (haze)

METAR text: VOTV 192330Z 00000KT 3000 HZ FEW015 25/22 Q1012 NOSIG
Conditions at: VOTV (THIRUVANANTHAPUR, IN) observed 2330 UTC 19 January 2019
Temperature: 25.0°C (77°F)
Dewpoint: 22.0°C (72°F) [RH = 83%]
Pressure (altimeter): 29.88 inches Hg (1012.0 mb)
Winds: calm
Visibility: 1.86 miles (2.99 km)
Ceiling: at least 12,000 feet AGL
Clouds: few clouds at 1500 feet AGL
Weather: HZ  (haze)

METAR text: VOTV 192300Z 00000KT 3000 HZ FEW015 25/22 Q1012 NOSIG
Conditions at: VOTV (THIRUVANANTHAPUR, IN) observed 2300 UTC 19 January 2019
Temperature: 25.0°C (77°F)
Dewpoint: 22.0°C (72°F) [RH = 83%]
Pressure (altimeter): 29.88 inches Hg (1012.0 mb)
Winds: calm
Visibility: 1.86 miles (2.99 km)
Ceiling: at least 12,000 feet AGL
Clouds: few clouds at 1500 feet AGL
Weather: HZ  (haze)

METAR text: VOTV 192230Z 00000KT 3000 HZ FEW015 25/22 Q1011 NOSIG
Conditions at: VOTV (THIRUVANANTHAPUR, IN) observed 2230 UTC 19 January 2019
Temperature: 25.0°C (77°F)
Dewpoint: 22.0°C (72°F) [RH = 83%]
Pressure (altimeter): 29.85 inches Hg (1011.0 mb)
Winds: calm
Visibility: 1.86 miles (2.99 km)
Ceiling: at least 12,000 feet AGL
Clouds: few clouds at 1500 feet AGL
Weather: HZ  (haze)

METAR text: VOTV 192130Z 00000KT 3000 HZ FEW015 25/22 Q1012 NOSIG
Conditions at: VOTV (THIRUVANANTHAPUR, IN) observed 2130 UTC 19 January 2019
Temperature: 25.0°C (77°F)
Dewpoint: 22.0°C (72°F) [RH = 83%]
Pressure (altimeter): 29.88 inches Hg (1012.0 mb)
Winds: calm
Visibility: 1.86 miles (2.99 km)
Ceiling: at least 12,000 feet AGL
Clouds: few clouds at 1500 feet AGL
Weather: HZ  (haze)

METAR text: VOTV 192100Z 00000KT 3000 HZ FEW015 25/22 Q1012 NOSIG
Conditions at: VOTV (THIRUVANANTHAPUR, IN) observed 2100 UTC 19 January 2019
Temperature: 25.0°C (77°F)
Dewpoint: 22.0°C (72°F) [RH = 83%]
Pressure (altimeter): 29.88 inches Hg (1012.0 mb)
Winds: calm
Visibility: 1.86 miles (2.99 km)
Ceiling: at least 12,000 feet AGL
Clouds: few clouds at 1500 feet AGL
Weather: HZ  (haze)

METAR text: VOTV 192030Z 00000KT 3000 HZ FEW015 26/22 Q1012 NOSIG
Conditions at: VOTV (THIRUVANANTHAPUR, IN) observed 2030 UTC 19 January 2019
Temperature: 26.0°C (79°F)
Dewpoint: 22.0°C (72°F) [RH = 79%]
Pressure (altimeter): 29.88 inches Hg (1012.0 mb)
Winds: calm
Visibility: 1.86 miles (2.99 km)
Ceiling: at least 12,000 feet AGL
Clouds: few clouds at 1500 feet AGL
Weather: HZ  (haze)

METAR text: VOTV 192000Z 00000KT 3000 HZ FEW015 26/22 Q1012 NOSIG
Conditions at: VOTV (THIRUVANANTHAPUR, IN) observed 2000 UTC 19 January 2019
Temperature: 26.0°C (79°F)
Dewpoint: 22.0°C (72°F) [RH = 79%]
Pressure (altimeter): 29.88 inches Hg (1012.0 mb)
Winds: calm
Visibility: 1.86 miles (2.99 km)
Ceiling: at least 12,000 feet AGL
Clouds: few clouds at 1500 feet AGL
Weather: HZ  (haze)

METAR text: VOTV 191930Z VRB02KT 3000 HZ FEW015 26/22 Q1013 NOSIG
Conditions at: VOTV (THIRUVANANTHAPUR, IN) observed 1930 UTC 19 January 2019
Temperature: 26.0°C (79°F)
Dewpoint: 22.0°C (72°F) [RH = 79%]
Pressure (altimeter): 29.91 inches Hg (1013.0 mb)
Winds: variable direction winds at 2 MPH (2 knots; 1.0 m/s)
Visibility: 1.86 miles (2.99 km)
Ceiling: at least 12,000 feet AGL
Clouds: few clouds at 1500 feet AGL
Weather: HZ  (haze)

METAR text: VOTV 191900Z VRB02KT 3000 HZ FEW015 26/22 Q1013 NOSIG
Conditions at: VOTV (THIRUVANANTHAPUR, IN) observed 1900 UTC 19 January 2019
Temperature: 26.0°C (79°F)
Dewpoint: 22.0°C (72°F) [RH = 79%]
Pressure (altimeter): 29.91 inches Hg (1013.0 mb)
Winds: variable direction winds at 2 MPH (2 knots; 1.0 m/s)
Visibility: 1.86 miles (2.99 km)
Ceiling: at least 12,000 feet AGL
Clouds: few clouds at 1500 feet AGL
Weather: HZ  (haze)

METAR text: VOTV 191830Z 16004KT 3000 HZ FEW015 26/22 Q1013 NOSIG
Conditions at: VOTV (THIRUVANANTHAPUR, IN) observed 1830 UTC 19 January 2019
Temperature: 26.0°C (79°F)
Dewpoint: 22.0°C (72°F) [RH = 79%]
Pressure (altimeter): 29.91 inches Hg (1013.0 mb)
Winds: from the SSE (160 degrees) at 5 MPH (4 knots; 2.1 m/s)
Visibility: 1.86 miles (2.99 km)
Ceiling: at least 12,000 feet AGL
Clouds: few clouds at 1500 feet AGL
Weather: HZ  (haze)

METAR text: VOTV 191800Z 16004KT 3000 HZ FEW015 26/22 Q1013 NOSIG
Conditions at: VOTV (THIRUVANANTHAPUR, IN) observed 1800 UTC 19 January 2019
Temperature: 26.0°C (79°F)
Dewpoint: 22.0°C (72°F) [RH = 79%]
Pressure (altimeter): 29.91 inches Hg (1013.0 mb)
Winds: from the SSE (160 degrees) at 5 MPH (4 knots; 2.1 m/s)
Visibility: 1.86 miles (2.99 km)
Ceiling: at least 12,000 feet AGL
Clouds: few clouds at 1500 feet AGL
Weather: HZ  (haze)

Forecast for: VOTV (THIRUVANANTHAPUR, IN)
Text: TAF VOTV 210500Z 2106/2212 11005KT 6000 FEW015 BKN080
Forecast period: 0600 to 0800 UTC 21 January 2019
Forecast type: FROM: standard forecast or significant change
Winds: from the ESE (110 degrees) at 6 MPH (5 knots; 2.6 m/s)
Visibility: 4 miles (6 km)
Ceiling: 8000 feet AGL
Clouds: few clouds at 1500 feet AGL
broken clouds at 8000 feet AGL
Weather: no significant weather forecast for this period
Text: BECMG 2108/2109 28010KT SCT015 SCT080
Forecast period: 0800 to 1300 UTC 21 January 2019
Forecast type: BECOMING: Conditions expected to become as follows by 0900 UTC 21 January 2019
Winds: from the W (280 degrees) at 12 MPH (10 knots; 5.1 m/s)
Visibility: 4 miles (6 km)
Ceiling: at least 12,000 feet AGL
Clouds: scattered clouds at 1500 feet AGL
scattered clouds at 8000 feet AGL
Weather: no significant weather forecast for this period
Text: BECMG 2113/2114 VRB03KT 4000 HZ
Forecast period: 1300 UTC 21 January 2019 to 0300 UTC 22 January 2019
Forecast type: BECOMING: Conditions expected to become as follows by 1400 UTC 21 January 2019
Winds: variable direction winds at 3 MPH (3 knots; 1.5 m/s)
Visibility: 2.49 miles (4.01 km)
Ceiling: at least 12,000 feet AGL
Clouds: scattered clouds at 1500 feet AGL
scattered clouds at 8000 feet AGL
Weather: HZ  (haze)
Text: TEMPO 2122/2203 2500 BR FEW015
Forecast period: 2200 UTC 21 January 2019 to 0300 UTC 22 January 2019
Forecast type: TEMPORARY: The following changes expected for less than half the time period
Visibility: 1.55 miles (2.49 km)
Ceiling: at least 12,000 feet AGL
Clouds: few clouds at 1500 feet AGL
Weather: BR  (mist)
Text: BECMG 2203/2203 09005KT 4000 HZ SCT015
Forecast period: 0300 to 0600 UTC 22 January 2019
Forecast type: BECOMING: Conditions expected to become as follows by 0300 UTC 22 January 2019
Winds: from the E (90 degrees) at 6 MPH (5 knots; 2.6 m/s)
Visibility: 2.49 miles (4.01 km)
Ceiling: at least 12,000 feet AGL
Clouds: scattered clouds at 1500 feet AGL
Weather: HZ  (haze)
Text: BECMG 2206/2207 09010KT 6000
Forecast period: 0600 to 1200 UTC 22 January 2019
Forecast type: BECOMING: Conditions expected to become as follows by 0700 UTC 22 January 2019
Winds: from the E (90 degrees) at 12 MPH (10 knots; 5.1 m/s)
Visibility: 4 miles (6 km)
Ceiling: at least 12,000 feet AGL
Clouds: scattered clouds at 1500 feet AGL
Weather: HZ  (haze)